Time;durP1;ratioP1;P1;durP2;ratioP2;P2;SDS_P1;SDS_P2;PMS_P1;PMS_P2;Temp;Humidity;BMP_temperature;BMP_pressure;BME280_temperature;BME280_humidity;BME280_pressure;Samples;Min_cycle;Max_cycle;Signal;HPM_P1;HPM_P2
2022/07/05 00:00:04;;;;;;;3.95;1.60;;;;;;;17.33;63.32;102213.72;5075189;27;98588;-35
2022/07/05 00:02:29;;;;;;;2.20;1.50;;;;;;;17.22;63.65;102194.38;5075328;27;96581;-35
2022/07/05 00:04:54;;;;;;;5.82;1.60;;;;;;;17.27;63.05;102205.03;5075741;27;96767;-35
2022/07/05 00:07:20;;;;;;;3.40;1.60;;;;;;;17.33;63.00;102221.94;5074727;27;107030;-35
2022/07/05 00:09:48;;;;;;;2.22;1.30;;;;;;;17.31;63.58;102218.41;5075129;27;97755;-35
2022/07/05 00:12:13;;;;;;;3.00;1.80;;;;;;;17.32;63.03;102214.66;5073878;27;96563;-35
2022/07/05 00:14:43;;;;;;;4.38;1.75;;;;;;;17.34;63.17;102203.63;5074738;27;96833;-35
2022/07/05 00:17:09;;;;;;;3.03;1.77;;;;;;;17.37;62.93;102201.53;5073553;27;100846;-35
2022/07/05 00:19:34;;;;;;;3.20;1.88;;;;;;;17.39;63.43;102201.44;5073518;27;101402;-35
2022/07/05 00:22:00;;;;;;;5.60;2.53;;;;;;;17.39;63.62;102213.28;5075204;27;101842;-35
2022/07/05 00:24:26;;;;;;;6.97;3.00;;;;;;;17.34;63.25;102204.50;5078976;27;96831;-35
2022/07/05 00:26:51;;;;;;;6.13;2.63;;;;;;;17.33;64.04;102204.63;5078344;27;99472;-35
2022/07/05 00:29:17;;;;;;;5.30;2.65;;;;;;;17.38;63.52;102216.13;5078697;27;97587;-35
2022/07/05 00:31:48;;;;;;;6.00;2.55;;;;;;;17.30;65.06;102210.28;5078942;27;96336;-35
2022/07/05 00:34:13;;;;;;;8.88;2.83;;;;;;;17.35;64.07;102221.81;5076793;27;96816;-35
2022/07/05 00:36:38;;;;;;;7.82;3.20;;;;;;;17.32;64.29;102222.88;5078222;27;98014;-35
2022/07/05 00:39:05;;;;;;;8.43;3.05;;;;;;;17.29;64.03;102211.28;5078832;27;97811;-35
2022/07/05 00:41:30;;;;;;;6.78;2.95;;;;;;;17.31;63.86;102212.94;5077032;27;96690;-35
2022/07/05 00:43:59;;;;;;;5.38;2.70;;;;;;;17.27;63.92;102205.91;5078587;27;97473;-35
2022/07/05 00:46:25;;;;;;;5.18;2.08;;;;;;;17.22;64.15;102194.38;5076254;27;101033;-35
2022/07/05 00:48:51;;;;;;;5.60;1.92;;;;;;;17.21;64.74;102195.38;5076515;27;101303;-35
2022/07/05 00:51:17;;;;;;;4.38;2.22;;;;;;;17.18;64.19;102198.31;5077000;27;96550;-35
2022/07/05 00:53:44;;;;;;;5.07;2.38;;;;;;;17.15;64.35;102198.53;5076664;27;96800;-35
2022/07/05 00:56:10;;;;;;;6.43;2.92;;;;;;;17.13;65.08;102206.81;5076718;27;101195;-35
2022/07/05 00:58:36;;;;;;;7.43;2.35;;;;;;;17.17;65.34;102213.00;5076664;27;100680;-35
2022/07/05 01:01:03;;;;;;;6.30;3.05;;;;;;;17.09;65.22;102199.81;5075717;27;96434;-35
2022/07/05 01:03:29;;;;;;;10.55;4.15;;;;;;;17.08;64.75;102202.66;5074501;27;96889;-35
2022/07/05 01:05:55;;;;;;;5.38;2.78;;;;;;;17.09;64.33;102202.56;5075495;27;97434;-35
2022/07/05 01:08:23;;;;;;;5.65;2.40;;;;;;;17.08;65.76;102202.66;5075313;27;97818;-35
2022/07/05 01:10:49;;;;;;;4.20;2.10;;;;;;;17.06;64.67;102202.75;5073404;27;96909;-35
2022/07/05 01:13:15;;;;;;;2.85;1.63;;;;;;;17.02;65.59;102194.84;5073509;27;98787;-35
2022/07/05 01:15:42;;;;;;;3.47;1.85;;;;;;;17.07;65.61;102211.88;5075197;27;98930;-35
2022/07/05 01:18:08;;;;;;;4.43;2.00;;;;;;;17.02;65.01;102203.97;5074987;27;97315;-35
2022/07/05 01:20:34;;;;;;;6.00;2.05;;;;;;;16.96;65.00;102193.41;5073847;27;96684;-35
2022/07/05 01:23:02;;;;;;;5.18;2.13;;;;;;;16.96;65.47;102210.69;5073792;27;96874;-35
2022/07/05 01:25:29;;;;;;;4.75;2.00;;;;;;;16.90;64.67;102200.19;5073671;27;99109;-35
2022/07/05 01:27:55;;;;;;;4.07;1.95;;;;;;;16.98;65.30;102216.97;5073974;27;100806;-35
2022/07/05 01:30:21;;;;;;;5.57;1.83;;;;;;;16.94;65.65;102207.19;5075071;27;96628;-35
2022/07/05 01:32:47;;;;;;;3.45;1.65;;;;;;;16.87;66.03;102208.56;5074683;27;96899;-35
2022/07/05 01:35:13;;;;;;;2.75;1.60;;;;;;;16.85;65.82;102207.81;5073381;27;99405;-35
2022/07/05 01:37:38;;;;;;;4.57;1.55;;;;;;;16.88;65.80;102214.97;5073252;27;101032;-35
2022/07/05 01:40:05;;;;;;;3.47;1.88;;;;;;;16.80;65.87;102204.50;5075006;27;96605;-35
2022/07/05 01:42:31;;;;;;;4.03;1.80;;;;;;;16.83;65.20;102206.16;5074945;27;96782;-35
2022/07/05 01:44:56;;;;;;;3.05;1.55;;;;;;;16.81;65.89;102208.13;5075142;27;97396;-35
2022/07/05 01:47:22;;;;;;;3.17;1.65;;;;;;;16.75;66.20;102206.63;5074517;27;99340;-35
2022/07/05 01:49:52;;;;;;;3.38;1.73;;;;;;;16.75;66.11;102207.50;5074704;27;96643;-35
2022/07/05 01:52:21;;;;;;;2.70;1.67;;;;;;;16.68;66.18;102197.94;5073467;27;96785;-35
2022/07/05 01:54:46;;;;;;;4.60;2.53;;;;;;;16.72;66.10;102209.56;5073198;27;101181;-35
2022/07/05 01:57:12;;;;;;;3.33;1.65;;;;;;;16.66;66.44;102202.66;5074734;27;97481;-35
2022/07/05 01:59:37;;;;;;;2.88;1.85;;;;;;;16.69;66.69;102212.50;5074212;27;96658;-35
2022/07/05 02:02:04;;;;;;;2.28;1.40;;;;;;;16.64;66.21;102201.00;5074428;27;96896;-35
2022/07/05 02:04:29;;;;;;;3.80;2.10;;;;;;;16.60;66.28;102207.63;5073060;27;100951;-35
2022/07/05 02:06:56;;;;;;;6.40;1.63;;;;;;;16.58;65.65;102206.84;5074508;27;98008;-35
2022/07/05 02:09:21;;;;;;;2.15;1.23;;;;;;;16.60;66.76;102213.13;5073081;27;96460;-35
2022/07/05 02:11:47;;;;;;;2.67;1.50;;;;;;;16.55;66.79;102207.94;5074724;27;96582;-35
2022/07/05 02:14:12;;;;;;;3.10;1.60;;;;;;;16.50;67.18;102199.16;5073863;27;97348;-35
2022/07/05 02:16:38;;;;;;;3.67;1.70;;;;;;;16.52;66.92;102199.94;5074664;27;97743;-35
2022/07/05 02:19:03;;;;;;;4.30;1.80;;;;;;;16.49;66.82;102201.03;5074342;27;96502;-35
2022/07/05 02:21:29;;;;;;;2.63;1.73;;;;;;;16.46;67.63;102201.19;5074457;27;96797;-35
2022/07/05 02:23:54;;;;;;;1.95;1.38;;;;;;;16.41;67.66;102203.34;5073428;27;99475;-35
2022/07/05 02:26:20;;;;;;;4.22;1.70;;;;;;;16.34;68.01;102199.25;5073714;27;102311;-35
2022/07/05 02:28:45;;;;;;;2.30;1.48;;;;;;;16.37;68.47;102204.53;5074325;27;96463;-35
2022/07/05 02:31:11;;;;;;;3.13;1.85;;;;;;;16.33;67.63;102208.47;5074155;27;96891;-35
2022/07/05 02:33:37;;;;;;;5.70;2.08;;;;;;;16.30;67.49;102211.38;5073761;27;98231;-35
2022/07/05 02:36:07;;;;;;;4.15;1.58;;;;;;;16.24;68.41;102207.19;5072545;27;101163;-35
2022/07/05 02:38:33;;;;;;;4.30;2.03;;;;;;;16.27;68.16;102206.09;5072642;27;96557;-35
2022/07/05 02:40:58;;;;;;;3.42;1.70;;;;;;;16.27;67.73;102211.56;5074534;27;96778;-35
2022/07/05 02:43:24;;;;;;;3.70;1.50;;;;;;;16.22;68.66;102209.13;5073630;27;97559;-35
2022/07/05 02:45:49;;;;;;;2.47;1.52;;;;;;;16.18;67.68;102206.69;5073654;27;106584;-35
2022/07/05 02:48:14;;;;;;;2.78;1.80;;;;;;;16.10;68.72;102199.84;5073505;27;96479;-35
2022/07/05 02:50:40;;;;;;;2.67;1.73;;;;;;;16.10;68.72;102205.31;5072315;27;96922;-35
2022/07/05 02:53:05;;;;;;;2.97;1.17;;;;;;;16.09;68.82;102203.56;5073461;27;97898;-35
2022/07/05 02:55:30;;;;;;;2.55;1.52;;;;;;;16.11;68.03;102214.38;5073854;27;98498;-35
2022/07/05 02:57:57;;;;;;;4.00;1.50;;;;;;;16.05;68.24;102206.59;5073232;27;96583;-35
2022/07/05 03:00:23;;;;;;;3.90;1.33;;;;;;;16.07;68.61;102215.59;5073608;27;96810;-35
2022/07/05 03:02:48;;;;;;;2.80;1.80;;;;;;;16.03;68.73;102205.81;5073703;27;97419;-35
2022/07/05 03:05:13;;;;;;;4.85;1.58;;;;;;;16.02;68.65;102207.66;5074070;27;97779;-35
2022/07/05 03:07:39;;;;;;;2.70;1.60;;;;;;;16.02;68.30;102215.00;5073845;27;96515;-35
2022/07/05 03:10:04;;;;;;;4.38;1.75;;;;;;;15.99;68.90;102218.78;5073657;27;96789;-35
2022/07/05 03:12:30;;;;;;;3.22;1.70;;;;;;;16.01;69.44;102226.88;5073056;27;98259;-35
2022/07/05 03:14:55;;;;;;;3.47;1.77;;;;;;;15.93;69.01;102219.16;5073087;27;96668;-35
2022/07/05 03:17:20;;;;;;;3.10;1.70;;;;;;;15.87;69.29;102212.25;5071745;27;99908;-35
2022/07/05 03:19:46;;;;;;;3.70;1.65;;;;;;;15.98;68.92;102225.22;5073659;27;96920;-35
2022/07/05 03:22:11;;;;;;;5.38;1.38;;;;;;;15.91;69.04;102221.13;5073435;27;103896;-35
2022/07/05 03:24:36;;;;;;;3.10;1.67;;;;;;;15.91;70.07;102224.72;5073442;27;97803;-35
2022/07/05 03:27:02;;;;;;;3.67;1.73;;;;;;;15.85;69.25;102224.22;5073238;27;98873;-35
2022/07/05 03:29:27;;;;;;;2.65;1.75;;;;;;;15.86;69.89;102224.13;5073638;27;96782;-35
2022/07/05 03:31:52;;;;;;;3.00;1.63;;;;;;;15.89;69.28;102226.66;5073188;27;97357;-35
2022/07/05 03:34:18;;;;;;;3.90;1.85;;;;;;;15.87;70.10;102216.81;5072846;27;97891;-35
2022/07/05 03:36:43;;;;;;;2.45;1.65;;;;;;;15.91;69.50;102234.78;5072662;27;96499;-35
2022/07/05 03:39:08;;;;;;;3.88;2.13;;;;;;;15.87;70.64;102222.28;5073030;27;96839;-35
2022/07/05 03:41:34;;;;;;;4.00;2.38;;;;;;;15.91;69.30;102232.91;5073187;27;98050;-35
2022/07/05 03:43:59;;;;;;;3.95;1.73;;;;;;;16.00;69.48;102234.22;5072909;27;97755;-35
2022/07/05 03:46:24;;;;;;;3.83;1.85;;;;;;;16.02;69.76;102245.94;5072526;27;108822;-35
2022/07/05 03:48:50;;;;;;;3.95;1.83;;;;;;;15.99;69.50;102234.28;5073124;27;96844;-35
2022/07/05 03:51:15;;;;;;;4.25;2.00;;;;;;;15.98;69.21;102221.63;5072713;27;99436;-35
2022/07/05 03:53:40;;;;;;;4.00;1.85;;;;;;;16.06;70.09;102235.66;5073012;27;97789;-35
2022/07/05 03:56:05;;;;;;;2.80;1.63;;;;;;;16.05;69.48;102229.34;5073165;27;96657;-35
2022/07/05 03:58:31;;;;;;;3.78;2.03;;;;;;;16.09;70.57;102241.84;5079439;27;96775;-35
2022/07/05 04:00:56;;;;;;;3.45;1.85;;;;;;;16.12;69.84;102247.09;5079143;27;97387;-35
2022/07/05 04:03:21;;;;;;;6.45;1.60;;;;;;;16.12;70.99;102240.75;5079448;27;101211;-35
2022/07/05 04:05:47;;;;;;;3.63;1.73;;;;;;;16.07;69.46;102232.84;5079640;27;97278;-35
2022/07/05 04:08:12;;;;;;;4.15;2.17;;;;;;;16.10;69.95;102243.59;5079450;27;103362;-35
2022/07/05 04:10:37;;;;;;;6.00;2.35;;;;;;;16.13;70.00;102246.13;5079358;27;99178;-35
2022/07/05 04:13:03;;;;;;;2.42;1.23;;;;;;;16.12;69.85;102238.91;5078737;27;97803;-35
2022/07/05 04:15:28;;;;;;;3.58;2.03;;;;;;;16.12;69.36;102248.97;5079467;27;96552;-35
2022/07/05 04:17:55;;;;;;;5.85;2.13;;;;;;;16.14;69.83;102244.28;5079434;27;110270;-35
2022/07/05 04:20:22;;;;;;;7.30;2.40;;;;;;;16.10;69.78;102237.25;5077831;27;101381;-35
2022/07/05 04:22:48;;;;;;;8.73;2.25;;;;;;;16.09;69.96;102241.84;5077700;27;100963;-35
2022/07/05 04:25:16;;;;;;;4.18;2.42;;;;;;;16.09;69.60;102232.75;5077349;27;97158;-35
2022/07/05 04:27:53;;;;;;;7.43;2.33;;;;;;;16.12;70.50;102243.50;5079078;27;97372;-35
2022/07/05 04:30:21;;;;;;;4.35;2.25;;;;;;;16.07;70.39;102245.66;5077864;27;100904;-35
2022/07/05 04:32:47;;;;;;;4.57;2.33;;;;;;;16.07;70.55;102243.78;5077495;27;100510;-35
2022/07/05 04:35:13;;;;;;;5.88;2.50;;;;;;;16.10;70.58;102256.38;5079419;27;98305;-35
2022/07/05 04:37:38;;;;;;;7.60;2.75;;;;;;;16.11;70.78;102255.38;5079207;27;96822;-35
2022/07/05 04:40:05;;;;;;;7.60;2.80;;;;;;;16.11;70.12;102255.38;5078962;27;97488;-35
2022/07/05 04:42:31;;;;;;;4.80;2.70;;;;;;;16.10;70.35;102245.44;5077931;27;102368;-35
2022/07/05 04:44:56;;;;;;;4.60;2.65;;;;;;;16.14;69.74;102253.38;5079396;27;96464;-35
2022/07/05 04:47:22;;;;;;;4.55;2.47;;;;;;;16.25;70.32;102260.00;5079111;27;96818;-35
2022/07/05 04:49:47;;;;;;;5.85;2.42;;;;;;;16.30;70.26;102260.59;5078570;27;97513;-35
2022/07/05 04:52:12;;;;;;;7.97;2.65;;;;;;;16.28;70.69;102251.59;5079060;27;97773;-35
2022/07/05 04:54:37;;;;;;;5.82;2.55;;;;;;;16.35;70.46;102263.91;5078998;27;96568;-35
2022/07/05 04:57:03;;;;;;;5.90;2.92;;;;;;;16.36;70.42;102252.00;5078741;27;100205;-35
2022/07/05 04:59:29;;;;;;;5.05;2.88;;;;;;;16.46;70.05;102258.63;5078762;27;99392;-35
2022/07/05 05:01:54;;;;;;;9.02;3.28;;;;;;;16.61;69.16;102253.16;5078781;27;97267;-35
2022/07/05 05:04:20;;;;;;;8.02;2.72;;;;;;;16.68;69.44;102254.53;5079077;27;96497;-35
2022/07/05 05:06:45;;;;;;;6.38;3.53;;;;;;;16.81;69.20;102249.19;5079251;27;96878;-35
2022/07/05 05:09:10;;;;;;;7.55;3.90;;;;;;;16.84;69.36;102248.97;5075261;27;97222;-35
2022/07/05 05:11:36;;;;;;;8.18;4.32;;;;;;;16.90;69.22;102254.03;5075260;27;97852;-35
2022/07/05 05:14:01;;;;;;;9.13;3.72;;;;;;;16.94;69.74;102255.59;5074730;27;96782;-35
2022/07/05 05:16:26;;;;;;;10.30;4.43;;;;;;;16.96;68.61;102253.63;5075294;27;103059;-35
2022/07/05 05:18:52;;;;;;;8.38;3.90;;;;;;;17.06;68.63;102268.47;5075291;27;97796;-35
2022/07/05 05:28:56;;;;;;;7.93;3.42;;;;;;;17.21;69.15;102277.53;5075099;27;96735;-35
2022/07/05 05:31:21;;;;;;;6.07;3.55;;;;;;;17.23;70.24;102281.03;5075177;27;97975;-35
2022/07/05 05:33:47;;;;;;;7.20;3.78;;;;;;;17.19;69.40;102266.66;5075129;27;98287;-35
2022/07/05 05:36:12;;;;;;;7.20;3.15;;;;;;;17.27;69.31;102270.75;5075188;27;96579;-35
2022/07/05 05:38:38;;;;;;;9.25;2.85;;;;;;;17.32;69.91;102280.41;5075145;27;96640;-35
2022/07/05 05:41:04;;;;;;;9.48;3.13;;;;;;;17.32;68.36;102277.66;5074509;27;97988;-35
2022/07/05 05:43:29;;;;;;;10.50;3.63;;;;;;;17.35;69.61;102276.59;5074901;27;97787;-35
2022/07/05 05:45:54;;;;;;;5.20;2.53;;;;;;;17.41;68.92;102281.66;5074868;27;96508;-35
2022/07/05 05:48:20;;;;;;;5.38;2.70;;;;;;;17.39;68.14;102272.66;5074973;27;96780;-35
2022/07/05 05:50:46;;;;;;;4.25;2.42;;;;;;;17.46;67.74;102274.00;5073321;27;101218;-35
2022/07/05 05:53:12;;;;;;;5.55;2.58;;;;;;;17.54;68.46;102284.44;5072668;27;101168;-35
2022/07/05 05:55:38;;;;;;;7.72;3.65;;;;;;;17.56;67.58;102266.03;5074861;27;96522;-35
2022/07/05 05:58:14;;;;;;;5.20;2.88;;;;;;;17.55;68.53;102273.38;5075156;27;96874;-35
2022/07/05 06:00:39;;;;;;;6.50;2.90;;;;;;;17.58;68.12;102277.78;5073174;27;98783;-35
2022/07/05 06:03:05;;;;;;;7.78;3.72;;;;;;;17.60;68.53;102270.34;5074356;27;99506;-35
2022/07/05 06:05:30;;;;;;;9.48;3.33;;;;;;;17.61;68.48;102267.50;5073763;27;103398;-35
2022/07/05 06:07:56;;;;;;;5.80;3.25;;;;;;;17.67;68.35;102279.00;5074907;27;96768;-35
2022/07/05 06:10:27;;;;;;;8.35;3.22;;;;;;;17.72;67.83;102276.84;5072601;27;101113;-34
2022/07/05 06:12:54;;;;;;;9.55;3.15;;;;;;;17.77;67.92;102294.69;5072391;27;100805;-35
2022/07/05 06:15:20;;;;;;;5.00;2.47;;;;;;;17.78;67.31;102292.84;5071885;27;97198;-35
2022/07/05 06:17:45;;;;;;;4.70;2.20;;;;;;;17.71;66.74;102277.78;5072831;27;97069;-35
2022/07/05 06:20:14;;;;;;;3.50;1.80;;;;;;;17.78;66.23;102310.19;5073658;27;97893;-35
2022/07/05 06:22:40;;;;;;;2.35;1.35;;;;;;;17.76;65.76;102298.44;5074409;27;100767;-35
2022/07/05 06:25:06;;;;;;;3.83;1.70;;;;;;;17.77;65.97;102300.19;5072977;27;96902;-35
2022/07/05 06:27:32;;;;;;;6.03;1.77;;;;;;;17.81;65.61;102299.03;5072812;27;96818;-35
2022/07/05 06:29:57;;;;;;;4.60;1.58;;;;;;;17.87;66.06;102311.44;5072187;27;100914;-35
2022/07/05 06:32:24;;;;;;;3.45;1.92;;;;;;;17.85;65.90;102304.28;5056482;27;97774;-34
2022/07/05 06:34:49;;;;;;;6.90;1.77;;;;;;;17.87;65.91;102311.44;5051801;27;96819;-35
2022/07/05 06:37:14;;;;;;;5.57;2.00;;;;;;;17.86;65.54;102309.69;5052298;27;96849;-35
2022/07/05 06:39:40;;;;;;;4.85;1.60;;;;;;;17.91;65.26;102306.63;5053523;27;98168;-35
2022/07/05 06:42:05;;;;;;;5.70;1.70;;;;;;;17.98;64.89;102313.44;5053589;27;97924;-35
2022/07/05 06:44:30;;;;;;;2.53;1.38;;;;;;;18.04;64.84;102323.97;5053415;27;96584;-35
2022/07/05 06:46:56;;;;;;;3.28;1.88;;;;;;;18.07;64.95;102322.88;5054261;27;96799;-35
2022/07/05 06:49:21;;;;;;;2.78;1.50;;;;;;;18.07;64.53;102320.13;5053299;27;97358;-35
2022/07/05 06:51:46;;;;;;;2.63;1.63;;;;;;;18.14;64.72;102330.59;5053589;27;97269;-35
2022/07/05 06:54:12;;;;;;;2.97;1.60;;;;;;;18.17;63.99;102318.53;5052875;27;96984;-35
2022/07/05 06:56:37;;;;;;;2.08;1.45;;;;;;;18.29;63.25;102331.38;5053294;27;97999;-35
2022/07/05 06:59:02;;;;;;;3.10;1.38;;;;;;;18.35;63.37;102336.44;5053362;27;97455;-35
2022/07/05 07:01:28;;;;;;;1.48;1.13;;;;;;;18.41;63.50;102335.09;5052969;27;97297;-34
2022/07/05 07:03:53;;;;;;;4.53;1.70;;;;;;;18.44;63.88;102321.16;5052773;27;96884;-35
2022/07/05 07:06:19;;;;;;;1.92;1.30;;;;;;;18.51;62.35;102332.59;5053202;27;97446;-35
2022/07/05 07:11:29;;;;;;;3.85;1.27;;;;;;;18.60;62.43;102326.44;5053721;27;96974;-35
2022/07/05 07:13:54;;;;;;;1.42;1.00;;;;;;;18.60;62.10;102321.81;5050796;27;96898;-35
2022/07/05 07:16:20;;;;;;;4.22;1.52;;;;;;;18.66;61.96;102336.97;5052806;27;96718;-35
2022/07/05 07:18:45;;;;;;;1.60;1.00;;;;;;;18.83;61.09;102330.28;5066743;27;99412;-35
2022/07/05 07:21:10;;;;;;;4.72;0.98;;;;;;;19.19;60.43;102334.06;5073172;27;105273;-35
2022/07/05 07:23:36;;;;;;;1.30;0.90;;;;;;;19.47;60.32;102331.00;5073392;27;96601;-35
2022/07/05 07:26:02;;;;;;;5.18;1.70;;;;;;;19.77;59.66;102337.06;5072417;27;96755;-35
2022/07/05 07:28:28;;;;;;;4.03;1.10;;;;;;;19.98;58.94;102340.03;5070584;27;100872;-35
2022/07/05 07:30:53;;;;;;;5.43;1.52;;;;;;;20.21;58.67;102350.09;5071923;27;99363;-35
2022/07/05 07:33:19;;;;;;;2.25;1.17;;;;;;;20.40;57.54;102359.66;5072176;27;96529;-35
2022/07/05 07:35:44;;;;;;;2.85;1.02;;;;;;;20.54;57.43;102335.53;5073749;27;96850;-35
2022/07/05 07:38:09;;;;;;;2.30;1.02;;;;;;;20.63;57.02;102338.59;5073168;27;97372;-35
2022/07/05 07:40:35;;;;;;;1.58;1.02;;;;;;;20.56;57.40;102341.81;5072683;27;106138;-35
2022/07/05 07:43:00;;;;;;;1.80;1.17;;;;;;;20.55;56.02;102336.44;5071203;27;96906;-35
2022/07/05 07:45:27;;;;;;;1.83;1.10;;;;;;;20.59;56.23;102348.94;5073057;27;96944;-35
2022/07/05 07:47:53;;;;;;;7.80;1.20;;;;;;;20.49;56.90;102356.16;5073002;27;98427;-35
2022/07/05 07:50:18;;;;;;;2.10;1.00;;;;;;;20.51;56.04;102354.19;5073278;27;97357;-35
2022/07/05 07:52:44;;;;;;;2.38;1.15;;;;;;;20.46;56.70;102360.03;5072756;27;98972;-35
2022/07/05 07:55:10;;;;;;;1.13;0.63;;;;;;;20.54;55.01;102353.94;5054488;27;96835;-35
2022/07/05 07:57:35;;;;;;;1.77;0.80;;;;;;;20.55;55.13;102344.69;5072807;27;97956;-35
2022/07/05 08:00:01;;;;;;;2.53;1.10;;;;;;;20.39;55.27;102353.28;5072975;27;99343;-35
2022/07/05 08:02:27;;;;;;;2.58;1.25;;;;;;;20.32;56.05;102358.38;5053420;27;96845;-35
2022/07/05 08:04:53;;;;;;;4.22;1.20;;;;;;;20.17;56.53;102354.09;5051566;27;97822;-35
2022/07/05 08:07:19;;;;;;;1.85;1.00;;;;;;;20.34;56.34;102350.03;5051188;27;97449;-35
2022/07/05 08:09:45;;;;;;;4.10;1.10;;;;;;;20.55;53.78;102342.84;5052044;27;99737;-35
2022/07/05 08:12:11;;;;;;;5.85;1.02;;;;;;;20.76;55.71;102351.25;5050925;27;96480;-35
2022/07/05 08:14:36;;;;;;;1.83;0.85;;;;;;;21.00;53.42;102356.63;5050440;27;96870;-35
2022/07/05 08:17:02;;;;;;;2.15;0.90;;;;;;;21.24;53.59;102358.38;5052258;27;97866;-35
2022/07/05 08:22:11;;;;;;;6.55;1.73;;;;;;;21.73;52.75;102356.16;5052388;27;96569;-35
2022/07/05 08:24:40;;;;;;;3.35;1.10;;;;;;;21.84;51.11;102358.88;5050966;27;96771;-36
2022/07/05 08:27:05;;;;;;;3.25;0.90;;;;;;;21.87;52.12;102355.84;5049655;27;101283;-36
2022/07/05 08:29:31;;;;;;;1.70;0.73;;;;;;;22.06;50.11;102364.28;5050971;27;97843;-35
2022/07/05 08:31:57;;;;;;;4.63;1.13;;;;;;;22.26;51.30;102367.22;5050590;27;96768;-35
2022/07/05 08:34:22;;;;;;;1.23;0.75;;;;;;;22.22;51.11;102363.88;5051371;27;96791;-35
2022/07/05 08:36:48;;;;;;;3.20;0.80;;;;;;;21.99;51.48;102362.19;5051422;27;97936;-35
2022/07/05 08:39:14;;;;;;;1.27;0.77;;;;;;;22.12;50.48;102345.44;5051554;27;98582;-35
2022/07/05 08:41:41;;;;;;;4.65;1.00;;;;;;;22.39;50.83;102344.97;5050405;27;96565;-35
2022/07/05 08:44:08;;;;;;;3.25;1.08;;;;;;;22.64;50.80;102349.16;5053065;27;96831;-35
2022/07/05 08:46:37;;;;;;;3.53;1.10;;;;;;;22.81;51.11;102347.66;5053835;27;100823;-35
2022/07/05 08:49:04;;;;;;;2.38;1.02;;;;;;;22.94;49.61;102341.91;5054125;27;100994;-35
2022/07/05 08:51:33;;;;;;;4.35;1.20;;;;;;;23.04;48.85;102349.25;5053834;27;96627;-35
2022/07/05 08:53:58;;;;;;;2.95;1.02;;;;;;;23.08;50.06;102336.91;5054867;27;96586;-35
2022/07/05 08:56:24;;;;;;;4.85;1.25;;;;;;;23.17;48.07;102345.38;5054243;27;99020;-35
2022/07/05 08:58:49;;;;;;;3.03;1.08;;;;;;;23.25;49.23;102345.56;5055276;27;97781;-35
2022/07/05 09:01:15;;;;;;;2.47;1.05;;;;;;;22.87;49.87;102348.00;5055229;27;96499;-35
2022/07/05 09:03:48;;;;;;;1.33;0.80;;;;;;;22.54;50.63;102360.16;5053877;27;96840;-35
2022/07/05 09:06:20;;;;;;;6.70;1.20;;;;;;;22.18;50.72;102356.84;5053615;27;101137;-34
2022/07/05 09:08:47;;;;;;;;;;;;;;;21.86;51.52;102356.88;5053805;27;100888;-35
2022/07/05 09:11:14;;;;;;;2.00;0.82;;;;;;;21.62;51.49;102354.31;5053708;27;96551;-35
2022/07/05 09:13:48;;;;;;;1.27;0.70;;;;;;;21.42;51.76;102359.59;5053331;27;96746;-35
2022/07/05 09:16:14;;;;;;;4.32;1.30;;;;;;;21.32;52.99;102357.72;5053372;27;101236;-35
2022/07/05 09:18:48;;;;;;;4.00;1.50;;;;;;;21.54;51.80;102354.94;5054886;27;97922;-35
2022/07/05 09:21:18;;;;;;;2.08;1.25;;;;;;;21.46;52.68;102363.00;5052824;27;97014;-35
2022/07/05 09:23:56;;;;;;;2.42;0.90;;;;;;;21.33;51.81;102368.63;5053441;27;96989;-35
2022/07/05 09:26:36;;;;;;;5.20;1.27;;;;;;;21.17;52.61;102366.25;5053756;27;97786;-34
2022/07/05 09:29:07;;;;;;;1.25;0.90;;;;;;;21.14;53.75;102377.56;5053281;27;101082;-35
2022/07/05 09:31:41;;;;;;;1.63;0.90;;;;;;;21.14;53.38;102377.56;5053411;27;96657;-34
2022/07/05 09:34:10;;;;;;;4.93;0.85;;;;;;;21.31;52.55;102372.50;5053013;27;96852;-35
2022/07/05 09:36:51;;;;;;;2.63;1.20;;;;;;;21.49;52.62;102381.16;5054342;27;99720;-35
2022/07/05 09:39:37;;;;;;;4.97;1.05;;;;;;;21.89;50.70;102372.28;5053397;27;101143;-34
2022/07/05 09:42:23;;;;;;;1.67;0.77;;;;;;;22.42;50.19;102381.44;5054702;27;96581;-35
2022/07/05 09:44:51;;;;;;;3.58;1.10;;;;;;;22.73;50.05;102388.94;5053099;27;96761;-35
2022/07/05 09:47:19;;;;;;;2.22;0.95;;;;;;;22.87;49.67;102385.81;5053742;27;99045;-35
2022/07/05 09:49:51;;;;;;;1.00;0.80;;;;;;;22.58;50.19;102380.13;5054337;27;98369;-35
2022/07/05 09:52:30;;;;;;;3.85;0.98;;;;;;;22.23;50.32;102398.75;5052836;27;96620;-35
2022/07/05 09:55:05;;;;;;;2.42;1.10;;;;;;;21.96;51.39;102387.31;5051927;27;96918;-35
2022/07/05 09:57:32;;;;;;;1.55;0.98;;;;;;;21.85;51.38;102377.16;5052839;27;101158;-35
2022/07/05 10:00:04;;;;;;;2.10;1.05;;;;;;;21.69;52.36;102371.19;5054135;27;97368;-35
2022/07/05 10:02:41;;;;;;;5.93;1.05;;;;;;;21.71;52.25;102385.75;5052529;27;96612;-35
2022/07/05 10:05:14;;;;;;;2.22;1.10;;;;;;;21.98;51.42;102386.16;5054208;27;96660;-35
2022/07/05 10:07:44;;;;;;;3.50;1.30;;;;;;;22.41;50.61;102389.88;5053842;27;99307;-35
2022/07/05 10:10:11;;;;;;;4.00;1.13;;;;;;;22.75;50.63;102401.59;5053728;27;99369;-35
2022/07/05 10:12:37;;;;;;;2.03;1.13;;;;;;;23.04;49.73;102392.59;5051905;27;97310;-35
2022/07/05 10:15:03;;;;;;;3.88;0.98;;;;;;;23.08;48.93;102396.84;5052585;27;96732;-35
2022/07/05 10:17:35;;;;;;;4.25;1.00;;;;;;;23.21;49.49;102399.38;5052416;27;100911;-35
2022/07/05 10:20:01;;;;;;;;;;;;;;;23.51;48.61;102402.09;5052707;27;101351;-35
2022/07/05 10:22:27;;;;;;;2.88;1.00;;;;;;;23.48;48.22;102396.00;5054027;27;96564;-35
2022/07/05 10:24:54;;;;;;;1.25;0.90;;;;;;;23.58;46.83;102394.13;5052284;27;96828;-35
2022/07/05 10:27:19;;;;;;;5.55;1.00;;;;;;;23.20;49.56;102394.88;5052140;27;100962;-35
2022/07/05 10:29:47;;;;;;;1.40;0.80;;;;;;;23.06;49.12;102385.94;5053857;27;98174;-35
2022/07/05 10:32:15;;;;;;;3.63;1.00;;;;;;;23.18;47.84;102391.38;5052312;27;96777;-36
2022/07/05 10:34:41;;;;;;;0.88;0.75;;;;;;;23.19;47.98;102401.41;5052068;27;96962;-36
2022/07/05 10:37:06;;;;;;;1.25;0.80;;;;;;;23.22;47.81;102390.94;5052961;27;99752;-36
2022/07/05 10:39:34;;;;;;;3.38;0.98;;;;;;;23.29;48.35;102391.28;5053451;27;97933;-35
2022/07/05 10:42:01;;;;;;;2.10;0.57;;;;;;;23.20;47.13;102403.16;5052157;27;96634;-36
2022/07/05 10:44:32;;;;;;;2.63;0.88;;;;;;;23.15;47.03;102403.59;5052118;27;96639;-36
2022/07/05 10:47:11;;;;;;;2.73;0.90;;;;;;;23.39;47.43;102405.13;5053377;27;100243;-36
2022/07/05 10:49:38;;;;;;;3.08;1.00;;;;;;;23.38;47.36;102419.97;5053321;27;99596;-35
2022/07/05 10:52:04;;;;;;;6.22;1.23;;;;;;;23.22;47.39;102413.06;5053734;27;96592;-36
2022/07/05 10:54:31;;;;;;;3.08;0.80;;;;;;;23.34;46.97;102404.69;5052063;27;97148;-36
2022/07/05 10:57:23;;;;;;;4.50;0.82;;;;;;;23.69;46.56;102409.69;5051679;27;101391;-35
2022/07/05 11:00:10;;;;;;;5.28;0.73;;;;;;;23.87;46.35;102415.47;5051676;27;100759;-35
2022/07/05 11:02:36;;;;;;;2.45;1.00;;;;;;;23.93;46.24;102413.00;5051352;27;98213;-35
2022/07/05 11:05:03;;;;;;;5.25;1.05;;;;;;;24.04;45.66;102424.97;5051797;27;96815;-35
2022/07/05 11:07:56;;;;;;;4.72;0.85;;;;;;;24.13;45.17;102415.78;5050399;27;100882;-36
2022/07/05 11:10:21;;;;;;;7.82;0.77;;;;;;;24.04;45.75;102419.41;5052917;27;98937;-35
2022/07/05 11:12:47;;;;;;;2.03;0.60;;;;;;;23.62;44.26;102420.50;5052589;27;96873;-35
2022/07/05 11:15:14;;;;;;;8.48;1.10;;;;;;;23.37;44.88;102420.97;5051617;27;98213;-36
2022/07/05 11:17:39;;;;;;;1.92;0.77;;;;;;;23.43;46.00;102420.41;5052656;27;99457;-36
2022/07/05 11:20:30;;;;;;;1.65;0.82;;;;;;;23.74;46.13;102422.16;5053210;27;97722;-36
2022/07/05 11:23:02;;;;;;;2.60;0.65;;;;;;;23.84;44.89;102430.47;5050685;27;96852;-36
2022/07/05 11:25:33;;;;;;;6.07;1.20;;;;;;;23.48;45.53;102426.41;5053121;27;96799;-35
2022/07/05 11:28:08;;;;;;;1.08;0.70;;;;;;;23.62;44.20;102431.56;5050745;27;100977;-35
2022/07/05 11:30:58;;;;;;;2.50;0.77;;;;;;;23.75;44.04;102425.78;5052493;27;99669;-35
2022/07/05 11:33:28;;;;;;;2.92;0.90;;;;;;;23.66;43.97;102437.66;5051221;27;97011;-35
2022/07/05 11:35:55;;;;;;;2.58;0.70;;;;;;;23.65;44.85;102439.56;5051205;27;96856;-35